createdAt,value
2022-09-28T00:02:23.007Z,2.33
2022-09-28T00:04:56.366Z,2.27
2022-09-28T00:07:31.183Z,2.50
2022-09-28T00:10:05.153Z,2.10
2022-09-28T00:12:38.965Z,2.50
2022-09-28T00:15:12.616Z,2.20
2022-09-28T00:17:46.261Z,2.33
2022-09-28T00:20:22.276Z,2.40
2022-09-28T00:22:58.354Z,2.27
2022-09-28T00:25:32.258Z,2.60
2022-09-28T00:28:06.442Z,2.43
2022-09-28T00:30:39.774Z,2.43
2022-09-28T00:33:13.111Z,2.30
2022-09-28T00:35:47.509Z,2.70
2022-09-28T00:38:22.214Z,2.20
2022-09-28T00:40:56.761Z,2.43
2022-09-28T00:43:30.186Z,2.17
2022-09-28T00:46:11.391Z,2.17
2022-09-28T00:48:57.256Z,2.30
2022-09-28T00:51:32.985Z,1.93
2022-09-28T00:54:10.136Z,2.00
2022-09-28T00:56:48.221Z,1.77
2022-09-28T00:59:24.440Z,1.80
2022-09-28T01:01:57.997Z,2.17
2022-09-28T01:04:32.617Z,1.83
2022-09-28T01:07:06.344Z,2.10
2022-09-28T01:09:42.368Z,2.27
2022-09-28T01:12:16.285Z,2.30
2022-09-28T01:14:51.645Z,2.57
2022-09-28T01:17:34.098Z,3.33
2022-09-28T01:20:57.158Z,3.43
2022-09-28T01:24:01.399Z,2.80
2022-09-28T01:27:11.985Z,3.10
2022-09-28T01:29:55.468Z,2.60
2022-09-28T01:32:43.129Z,3.03
2022-09-28T01:35:29.311Z,2.97
2022-09-28T01:38:08.574Z,3.00
2022-09-28T01:40:43.120Z,3.30
2022-09-28T01:43:24.025Z,3.43
2022-09-28T01:46:05.542Z,3.40
2022-09-28T01:48:47.815Z,3.17
2022-09-28T01:51:35.553Z,2.87
2022-09-28T01:54:14.236Z,2.83
2022-09-28T01:56:53.889Z,3.10
2022-09-28T01:59:32.018Z,3.17
2022-09-28T02:02:13.652Z,3.03
2022-09-28T02:04:54.775Z,3.67
2022-09-28T02:07:39.399Z,3.10
2022-09-28T02:10:19.272Z,3.67
2022-09-28T02:12:58.561Z,4.07
2022-09-28T02:15:41.929Z,3.97
2022-09-28T02:18:15.649Z,4.10
2022-09-28T02:21:01.191Z,4.20
2022-09-28T02:23:40.174Z,4.07
2022-09-28T02:26:21.666Z,4.77
2022-09-28T02:28:55.063Z,5.10
2022-09-28T02:31:30.010Z,4.60
2022-09-28T02:34:07.039Z,5.03
2022-09-28T02:36:40.827Z,5.20
2022-09-28T02:39:16.958Z,4.73
2022-09-28T02:42:02.984Z,5.00
2022-09-28T02:45:03.787Z,5.30
2022-09-28T02:47:59.625Z,5.07
2022-09-28T02:50:48.096Z,5.00
2022-09-28T02:53:58.967Z,6.13
2022-09-28T02:56:56.772Z,5.57
2022-09-28T02:59:50.835Z,5.83
2022-09-28T03:02:32.266Z,6.30
2022-09-28T03:05:20.009Z,6.37
2022-09-28T03:08:01.217Z,6.70
2022-09-28T03:10:42.898Z,6.90
2022-09-28T03:13:19.144Z,7.03
2022-09-28T03:15:52.490Z,8.00
2022-09-28T03:18:25.848Z,7.77
2022-09-28T03:21:01.730Z,7.77
2022-09-28T03:23:35.423Z,8.63
2022-09-28T03:26:09.677Z,8.10
2022-09-28T03:28:42.960Z,9.70
2022-09-28T03:31:16.347Z,9.50
2022-09-28T03:33:49.842Z,9.33
2022-09-28T03:36:24.593Z,10.20
2022-09-28T03:38:59.554Z,9.90
2022-09-28T03:41:33.012Z,9.93
2022-09-28T03:44:06.534Z,9.93
2022-09-28T03:46:39.780Z,9.47
2022-09-28T03:49:13.219Z,9.40
2022-09-28T03:51:48.718Z,9.80
2022-09-28T03:54:21.984Z,9.50
2022-09-28T03:56:55.331Z,9.63
2022-09-28T03:59:28.959Z,9.67
2022-09-28T04:02:02.305Z,9.27
2022-09-28T04:04:35.798Z,10.33
2022-09-28T04:07:10.564Z,10.37
2022-09-28T04:09:45.032Z,11.43
2022-09-28T04:12:18.464Z,11.57
2022-09-28T04:14:52.005Z,11.27
2022-09-28T04:17:25.428Z,12.27
2022-09-28T04:19:59.168Z,11.90
2022-09-28T04:22:34.085Z,12.33
2022-09-28T04:25:08.578Z,12.00
2022-09-28T04:27:59.224Z,12.30
2022-09-28T04:30:33.307Z,12.10
2022-09-28T04:33:06.603Z,10.77
2022-09-28T04:35:39.994Z,11.27
2022-09-28T04:38:14.684Z,11.93
2022-09-28T04:40:50.783Z,11.60
2022-09-28T04:43:24.380Z,10.80
2022-09-28T04:46:01.088Z,10.87
2022-09-28T04:48:34.604Z,10.30
2022-09-28T04:51:08.466Z,10.33
2022-09-28T04:53:43.299Z,10.43
2022-09-28T04:56:19.196Z,11.00
2022-09-28T04:58:52.960Z,10.00
2022-09-28T05:01:26.572Z,9.40
2022-09-28T05:04:00.579Z,9.77
2022-09-28T05:06:33.879Z,9.40
2022-09-28T05:09:09.447Z,8.57
2022-09-28T05:11:43.147Z,9.47
2022-09-28T05:14:16.820Z,9.03
2022-09-28T05:16:50.541Z,9.53
2022-09-28T05:19:23.844Z,9.37
2022-09-28T05:21:58.150Z,8.60
2022-09-28T05:24:33.149Z,9.23
2022-09-28T05:27:06.711Z,8.90
2022-09-28T05:29:40.112Z,9.30
2022-09-28T05:32:13.480Z,9.50
2022-09-28T05:34:46.723Z,10.00
2022-09-28T05:37:20.057Z,11.50
2022-09-28T05:39:54.854Z,10.80
2022-09-28T05:42:28.167Z,9.93
2022-09-28T05:45:03.380Z,10.27
2022-09-28T05:47:39.719Z,10.87
2022-09-28T05:50:15.910Z,10.27
2022-09-28T05:52:50.266Z,10.43
2022-09-28T05:55:27.364Z,12.07
2022-09-28T05:58:01.890Z,10.10
2022-09-28T06:00:38.538Z,11.40
2022-09-28T06:03:14.871Z,11.13
2022-09-28T06:05:48.584Z,11.13
2022-09-28T06:08:22.417Z,10.57
2022-09-28T06:11:01.791Z,11.63
2022-09-28T06:13:35.103Z,11.03
2022-09-28T06:16:10.547Z,10.53
2022-09-28T06:18:43.985Z,11.63
2022-09-28T06:21:17.534Z,11.40
2022-09-28T06:23:50.941Z,11.07
2022-09-28T06:26:25.946Z,12.07
2022-09-28T06:29:00.495Z,12.53
2022-09-28T06:31:34.033Z,11.93
2022-09-28T06:34:07.348Z,11.27
2022-09-28T06:36:41.014Z,10.90
2022-09-28T06:39:14.544Z,11.53
2022-09-28T06:41:49.219Z,12.50
2022-09-28T06:44:22.499Z,12.03
2022-09-28T06:46:57.091Z,12.93
2022-09-28T06:49:30.482Z,11.20
2022-09-28T06:52:03.827Z,11.90
2022-09-28T06:54:37.153Z,12.23
2022-09-28T06:57:12.106Z,12.17
2022-09-28T06:59:45.425Z,12.80
2022-09-28T07:02:19.722Z,12.67
2022-09-28T07:04:53.036Z,11.77
2022-09-28T07:07:27.058Z,12.03
2022-09-28T07:10:00.516Z,11.57
2022-09-28T07:12:36.611Z,12.77
2022-09-28T07:15:12.211Z,12.83
2022-09-28T07:17:58.720Z,12.03
2022-09-28T07:20:48.564Z,12.23
2022-09-28T07:23:27.514Z,12.83
2022-09-28T07:26:08.737Z,12.97
2022-09-28T07:28:44.201Z,12.03
2022-09-28T07:31:17.580Z,12.10
2022-09-28T07:33:52.424Z,12.60
2022-09-28T07:36:25.982Z,13.17
2022-09-28T07:38:59.606Z,13.77
2022-09-28T07:41:32.765Z,14.23
2022-09-28T07:44:07.823Z,13.93
2022-09-28T07:46:41.231Z,13.37
2022-09-28T07:49:16.767Z,13.97
2022-09-28T07:51:50.150Z,14.93
2022-09-28T07:54:23.472Z,15.53
2022-09-28T07:56:56.955Z,15.20
2022-09-28T07:59:31.795Z,13.87
2022-09-28T08:02:05.264Z,15.43
2022-09-28T08:04:45.598Z,14.40
2022-09-28T08:07:23.692Z,14.70
2022-09-28T08:09:57.544Z,14.47
2022-09-28T08:12:30.955Z,15.07
2022-09-28T08:15:10.305Z,14.70
2022-09-28T08:17:48.541Z,14.80
2022-09-28T08:20:39.692Z,14.30
2022-09-28T08:23:13.265Z,14.67
2022-09-28T08:25:49.865Z,14.53
2022-09-28T08:28:24.849Z,15.47
2022-09-28T08:31:02.287Z,15.90
2022-09-28T08:33:36.683Z,15.90
2022-09-28T08:36:11.955Z,15.13
2022-09-28T08:38:45.306Z,17.47
2022-09-28T08:41:34.942Z,17.10
2022-09-28T08:44:24.039Z,16.57
2022-09-28T08:47:08.555Z,17.10
2022-09-28T08:49:48.702Z,16.17
2022-09-28T08:52:28.078Z,15.80
2022-09-28T08:55:08.539Z,15.07
2022-09-28T08:57:49.423Z,13.37
2022-09-28T09:00:30.934Z,14.70
2022-09-28T09:03:13.222Z,16.27
2022-09-28T09:06:04.677Z,16.80
2022-09-28T09:09:00.151Z,15.90
2022-09-28T09:11:58.229Z,15.73
2022-09-28T09:15:39.932Z,16.17
2022-09-28T09:18:32.546Z,15.27
2022-09-28T09:21:16.543Z,15.10
2022-09-28T09:24:06.816Z,13.57
2022-09-28T09:26:42.147Z,14.53
2022-09-28T09:29:33.205Z,15.23
2022-09-28T09:32:32.441Z,14.87
2022-09-28T09:35:33.326Z,15.07
2022-09-28T09:38:30.825Z,13.43
2022-09-28T09:41:23.103Z,14.23
2022-09-28T09:44:21.817Z,13.17
2022-09-28T09:47:06.210Z,14.33
2022-09-28T09:49:46.144Z,14.33
2022-09-28T09:52:28.220Z,13.60
2022-09-28T09:55:30.092Z,13.83
2022-09-28T09:58:12.874Z,12.93
2022-09-28T10:00:51.886Z,11.90
2022-09-28T10:03:30.489Z,11.93
2022-09-28T10:06:10.442Z,11.13
2022-09-28T10:08:50.090Z,9.83
2022-09-28T10:11:32.620Z,9.97
2022-09-28T10:14:08.209Z,9.30
2022-09-28T10:16:42.045Z,9.00
2022-09-28T10:19:17.707Z,9.40
2022-09-28T10:21:52.793Z,9.60
2022-09-28T10:24:32.821Z,9.63
2022-09-28T10:27:12.812Z,9.17
2022-09-28T10:29:55.400Z,7.87
2022-09-28T10:32:39.396Z,8.33
2022-09-28T10:35:26.926Z,8.23
2022-09-28T10:38:04.666Z,8.20
2022-09-28T10:40:47.271Z,8.93
2022-09-28T10:43:28.327Z,9.17
2022-09-28T10:46:06.188Z,8.97
2022-09-28T10:48:53.004Z,8.10
2022-09-28T10:51:42.742Z,8.03
2022-09-28T10:54:19.304Z,7.90
2022-09-28T10:56:55.395Z,8.20
2022-09-28T10:59:41.501Z,7.30
2022-09-28T11:02:25.993Z,7.23
2022-09-28T11:05:02.786Z,6.13
2022-09-28T11:07:48.269Z,6.77
2022-09-28T11:10:28.498Z,6.47
2022-09-28T11:13:02.401Z,5.00
2022-09-28T11:15:46.710Z,5.47
2022-09-28T11:18:28.305Z,5.60
2022-09-28T11:21:12.859Z,5.30
2022-09-28T11:24:05.874Z,5.60
2022-09-28T11:26:43.258Z,5.20
2022-09-28T11:29:33.974Z,5.73
2022-09-28T11:32:15.708Z,5.10
2022-09-28T11:34:59.717Z,4.83
2022-09-28T11:38:04.987Z,4.53
2022-09-28T11:40:58.437Z,4.70
2022-09-28T11:44:05.647Z,3.93
2022-09-28T11:46:53.184Z,3.73
2022-09-28T11:49:40.286Z,3.93
2022-09-28T11:52:23.509Z,3.70
2022-09-28T11:55:03.141Z,4.00
2022-09-28T11:57:43.226Z,3.37
2022-09-28T12:00:22.362Z,3.00
2022-09-28T12:03:06.348Z,2.90
2022-09-28T12:05:48.413Z,2.77
2022-09-28T12:08:28.843Z,2.70
2022-09-28T12:11:09.838Z,2.60
2022-09-28T12:13:48.820Z,2.60
2022-09-28T12:19:30.816Z,2.00
2022-09-28T12:22:17.920Z,2.20
2022-09-28T12:24:58.542Z,1.90
2022-09-28T12:27:41.623Z,2.20
2022-09-28T12:30:19.863Z,2.30
2022-09-28T12:33:03.075Z,2.57
2022-09-28T12:35:56.190Z,2.80
2022-09-28T12:39:19.048Z,2.90
2022-09-28T12:42:14.516Z,3.10
2022-09-28T12:45:18.936Z,2.97
2022-09-28T12:48:53.531Z,2.83
2022-09-28T12:51:51.765Z,2.30
2022-09-28T12:55:04.157Z,2.53
2022-09-28T12:57:50.806Z,2.50
2022-09-28T13:00:32.340Z,2.80
2022-09-28T13:04:02.909Z,2.30
2022-09-28T13:06:51.537Z,2.80
2022-09-28T13:09:29.067Z,2.60
2022-09-28T13:12:35.477Z,2.23
2022-09-28T13:15:47.081Z,2.53
2022-09-28T13:18:30.354Z,2.60
2022-09-28T13:21:32.995Z,2.20
2022-09-28T13:24:31.549Z,2.33
2022-09-28T13:27:14.402Z,2.07
2022-09-28T13:29:51.212Z,2.10
2022-09-28T13:32:26.858Z,2.30
2022-09-28T13:35:02.927Z,2.73
2022-09-28T13:37:36.423Z,1.97
2022-09-28T13:40:11.355Z,2.10
2022-09-28T13:43:19.617Z,2.00
2022-09-28T13:46:09.697Z,2.30
2022-09-28T13:48:58.366Z,2.03
2022-09-28T13:51:50.218Z,1.57
2022-09-28T13:54:52.092Z,1.80
2022-09-28T13:57:36.132Z,2.00
2022-09-28T14:00:21.844Z,1.83
2022-09-28T14:03:05.189Z,1.77
2022-09-28T14:06:08.119Z,1.77
2022-09-28T14:09:06.440Z,1.90
2022-09-28T14:11:44.573Z,1.47
2022-09-28T14:14:51.510Z,1.27
